San Francisco, California
Traffic Map
Current Weather Conditions
San Francisco, California
Few Clouds
Few Clouds
71°
Feels Like: 71°
Wind Chill: 71° Ceiling: Unl
Heat Index: 71° Visibility: 10mi
Dew Point: 42° Wind: 10mph
Humidity: 35% Direction: 290° (WNW)
Pressure: 29.95in Gusts: 0mph
Raw Report DataKSFO 312356Z 29009KT 10SM FEW200 22/06 A2995 RMK AO2 SLP142 T02170056 10233 20183 56006
Traffic Incident Summary
Active as of:
Severity:
Category:
InformationThere was an issue retrieving the traffic information for this location. Please try a different location or try again shortly.
Advertisements
Track Severe Weather on mobile